Stations météo

réclame
Mon MeteoGroup
Hupsel aws, Pays-Bas (6283): Température de l'air & dewpoint: 13.12.2018 15:00:00 - 19.12.2018 15:00:00 (CET)Hupsel aws, Pays-Bas (6283): Température de l'air 5cm: 13.12.2018 15:00:00 - 19.12.2018 15:00:00 (CET)Hupsel aws, Pays-Bas (6283): Vitesse du vent & gusts: 13.12.2018 15:00:00 - 19.12.2018 15:00:00 (CET)Hupsel aws, Pays-Bas (6283): Direction du vent: 13.12.2018 15:00:00 - 19.12.2018 15:00:00 (CET)Hupsel aws, Pays-Bas (6283): Quantités de précipitations: 13.12.2018 15:00:00 - 19.12.2018 15:00:00 (CET)
Date & Time tt [°C] td [°C] tt 5cm [°C] ff [km/h] ff [knt] fx [km/h] fx [knt] dd rr [mm]
19.12.2018 15:00:00 8,9 6,7 8,4 11 6 25 14 S 0,0
19.12.2018 14:00:00 8,9 6,5 8,6 18 10 25 14 S 0,0
19.12.2018 13:00:00 8,7 7,0 8,4 11 6 25 14 S 0,0
19.12.2018 12:00:00 8,1 7,0 8,1 11 6 22 12 SSW 0,0
19.12.2018 11:00:00 7,3 6,8 7,1 14 8 22 12 S 0,0
19.12.2018 10:00:00 6,5 6,3 6,3 14 8 25 14 S 0,1
19.12.2018 09:00:00 6,1 5,9 5,8 14 8 29 16 S 0,0
19.12.2018 08:00:00 5,8 5,2 5,4 18 10 36 19 S 0,0
19.12.2018 07:00:00 5,5 4,5 5,2 22 12 40 21 S 0,1
19.12.2018 06:00:00 6,4 3,4 5,7 22 12 32 18 S 0,0
19.12.2018 05:00:00 6,4 3,4 5,5 14 8 40 21 S 0,0
19.12.2018 04:00:00 6,6 1,6 5,7 14 8 29 16 S 0,0
19.12.2018 03:00:00 6,3 1,4 5,4 18 10 29 16 S 0,0
19.12.2018 02:00:00 5,9 1,2 4,7 14 8 22 12 SSE 0,0
19.12.2018 01:00:00 5,0 1,3 4,2 14 8 22 12 SE 0,0
19.12.2018 00:00:00 4,8 1,5 4,1 14 8 25 14 SE 0,0
18.12.2018 23:00:00 4,5 1,5 3,9 14 8 25 14 ESE 0,0
18.12.2018 22:00:00 4,2 1,8 3,6 14 8 25 14 ESE 0,0
18.12.2018 21:00:00 4,1 1,8 3,3 11 6 22 12 ESE 0,0
18.12.2018 20:00:00 4,6 2,0 3,8 14 8 29 16 SE 0,0
18.12.2018 19:00:00 4,8 2,4 3,8 14 8 25 14 SE 0,0
18.12.2018 18:00:00 5,5 2,8 4,1 14 8 22 12 SSE 0,0
18.12.2018 17:00:00 5,5 3,2 4,2 11 6 22 12 SSE 0,0
18.12.2018 16:00:00 6,6 3,8 5,5 11 6 25 14 SE 0,0
18.12.2018 15:00:00 7,2 4,3 6,7 14 8 22 12 SSE 0,0
18.12.2018 14:00:00 7,8 4,5 8,1 14 8 22 12 S 0,0
18.12.2018 13:00:00 7,0 4,4 7,0 14 8 25 14 S 0,0
18.12.2018 12:00:00 6,7 3,9 7,0 14 8 25 14 SSE 0,0
18.12.2018 11:00:00 6,1 3,8 6,4 14 8 25 14 S 0,0
18.12.2018 10:00:00 5,6 3,8 5,5 11 6 22 12 SSE 0,0
18.12.2018 09:00:00 5,6 4,2 5,3 11 6 22 12 SSE 0,0
18.12.2018 08:00:00 5,8 4,8 5,5 11 6 18 10 S 0,0
18.12.2018 07:00:00 6,0 4,9 5,7 11 6 22 12 SSW 0,0
18.12.2018 06:00:00 5,8 4,8 5,5 11 6 22 12 S 0,0
18.12.2018 05:00:00 6,0 5,0 5,7 11 6 22 12 SSW 0,0
18.12.2018 04:00:00 5,6 5,0 5,2 14 8 25 14 S 0,0
18.12.2018 03:00:00 5,2 4,8 4,9 11 6 18 10 SSW 0,0
18.12.2018 02:00:00 5,5 5,1 5,2 11 6 22 12 SSW 0,0
18.12.2018 01:00:00 5,8 5,5 5,5 14 8 25 14 SSW 0,0
18.12.2018 00:00:00 5,7 5,3 5,3 11 6 25 14 SSW 0,0
17.12.2018 23:00:00 5,1 4,8 3,7 11 6 22 12 SW 0,0
17.12.2018 22:00:00 5,4 4,8 4,2 11 6 22 12 SSW 0,0
17.12.2018 21:00:00 4,8 4,1 3,6 11 6 18 10 SSW 0,0
17.12.2018 20:00:00 5,4 4,7 4,4 7 4 14 8 SSW 0,0
17.12.2018 19:00:00 6,1 5,4 5,1 7 4 18 10 SW 0,0
17.12.2018 18:00:00 6,6 5,9 5,8 11 6 22 12 SW 0,0
17.12.2018 17:00:00 7,0 6,5 6,6 14 8 22 12 SW 0,1
17.12.2018 16:00:00 6,9 6,7 6,6 14 8 22 12 WSW 0,3
17.12.2018 15:00:00 6,8 6,6 6,6 11 6 25 14 SW 1,2
17.12.2018 14:00:00 7,1 6,7 7,0 14 8 22 12 SW 0,2
17.12.2018 13:00:00 6,9 6,6 6,7 11 6 25 14 SSW 0,1
17.12.2018 12:00:00 6,1 5,9 5,9 11 6 25 14 SSW 0,1
17.12.2018 11:00:00 5,4 5,1 5,1 18 10 25 14 S 0,2
17.12.2018 10:00:00 4,8 4,5 4,5 11 6 22 12 SSE 0,2
17.12.2018 09:00:00 4,3 3,9 3,9 14 8 22 12 SSE 0,6
17.12.2018 08:00:00 3,9 3,6 3,7 11 6 18 10 SSE 0,1
17.12.2018 07:00:00 3,6 3,2 3,3 11 6 18 10 SE 0,0
17.12.2018 06:00:00 3,2 2,9 3,0 11 6 18 10 SE 0,0
17.12.2018 05:00:00 3,2 3,0 3,1 7 4 14 8 SE 0,0
17.12.2018 04:00:00 3,0 2,7 2,9 7 4 18 10 S 0,0
17.12.2018 03:00:00 2,9 2,7 2,8 11 6 25 14 S 0,0
17.12.2018 02:00:00 2,7 2,5 2,6 11 6 25 14 S 0,0
17.12.2018 01:00:00 2,5 2,3 2,4 14 8 22 12 SSW 0,0
17.12.2018 00:00:00 2,2 2,0 2,1 7 4 18 10 S 0,0
16.12.2018 23:00:00 2,0 1,7 1,9 7 4 18 10 SSW 0,0
16.12.2018 22:00:00 2,0 1,8 1,9 7 4 14 8 SSW 0,0
16.12.2018 21:00:00 2,0 1,7 1,8 7 4 14 8 S 0,0
16.12.2018 20:00:00 1,8 1,6 1,8 11 6 14 8 S 0,0
16.12.2018 19:00:00 1,6 1,3 1,4 11 6 14 8 SSW 0,0
16.12.2018 18:00:00 1,3 1,1 1,1 7 4 14 8 S 0,0
16.12.2018 17:00:00 1,0 0,7 0,8 7 4 14 8 S 0,0
16.12.2018 16:00:00 0,8 0,6 0,7 7 4 14 8 S 0,0
16.12.2018 15:00:00 0,7 0,4 0,6 7 4 14 8 SSW 0,0
16.12.2018 14:00:00 0,4 0,1 0,3 7 4 14 8 S 0,0
16.12.2018 13:00:00 0,0 -0,2 0,1 11 6 18 10 S 0,0
16.12.2018 12:00:00 -0,2 -0,6 -0,2 11 6 18 10 S 0,1
16.12.2018 11:00:00 -0,3 -1,0 -0,5 11 6 18 10 SSE 0,1
16.12.2018 10:00:00 -0,7 -1,3 -0,8 11 6 18 10 SSE 0,3
16.12.2018 09:00:00 -0,8 -1,7 -1,0 11 6 25 14 SSE 0,0
16.12.2018 08:00:00 -0,9 -2,1 -1,2 11 6 22 12 SSE 0,0
16.12.2018 07:00:00 -1,3 -2,2 -1,5 11 6 22 12 SE 0,0
16.12.2018 06:00:00 -1,8 -2,4 -1,8 11 6 22 12 ESE 0,1
16.12.2018 05:00:00 -1,7 -3,2 -1,8 11 6 18 10 ESE 0,0
16.12.2018 04:00:00 -1,5 -4,3 -1,7 14 8 22 12 SE 0,0
16.12.2018 03:00:00 -1,2 -5,2 -1,4 14 8 22 12 SE 0,0
16.12.2018 02:00:00 -1,5 -5,3 -1,8 14 8 29 16 SE 0,0
16.12.2018 01:00:00 -1,4 -5,5 -1,8 14 8 29 16 SE 0,0
16.12.2018 00:00:00 -1,5 -5,4 -1,9 22 12 36 19 ESE 0,0
15.12.2018 23:00:00 -1,8 -5,3 -2,4 22 12 32 18 ESE 0,0
15.12.2018 22:00:00 -1,7 -5,1 -2,6 22 12 29 16 ESE 0,0
15.12.2018 21:00:00 -1,5 -5,2 -2,5 14 8 25 14 ESE 0,0
15.12.2018 20:00:00 -1,1 -5,1 -2,0 18 10 25 14 ESE 0,0
15.12.2018 19:00:00 0,0 -4,7 -0,5 14 8 29 16 SE 0,0
15.12.2018 18:00:00 0,0 -4,6 -0,8 14 8 36 19 SE 0,0
15.12.2018 17:00:00 0,4 -4,5 -0,1 18 10 29 16 SE 0,0
15.12.2018 16:00:00 0,4 -4,4 0,1 18 10 25 14 SE 0,0
15.12.2018 15:00:00 0,5 -4,6 0,1 18 10 25 14 SE 0,0
15.12.2018 14:00:00 0,6 -4,5 0,3 18 10 29 16 SE 0,0
15.12.2018 13:00:00 0,7 -4,0 0,5 14 8 22 12 SSE 0,0
15.12.2018 12:00:00 0,7 -3,6 0,5 11 6 18 10 SSE 0,0
15.12.2018 11:00:00 0,4 -3,1 0,1 7 4 11 6 ESE 0,0
15.12.2018 10:00:00 0,1 -2,8 -0,3 4 2 11 6 SE 0,0
15.12.2018 09:00:00 0,0 -3,1 -0,6 7 4 11 6 SE 0,0
15.12.2018 08:00:00 0,0 -2,9 -0,6 4 2 11 6 SE 0,0
15.12.2018 07:00:00 -0,2 -2,2 -0,7 4 2 7 4 ESE 0,0
15.12.2018 06:00:00 -0,2 -1,8 -0,6 7 4 11 6 ESE 0,0
15.12.2018 05:00:00 -0,2 -1,7 -0,7 7 4 7 4 E 0,0
15.12.2018 04:00:00 -0,2 -1,5 -0,8 4 2 7 4 E 0,0
15.12.2018 03:00:00 -0,1 -1,5 -0,8 4 2 7 4 ESE 0,0
15.12.2018 02:00:00 0,0 -1,8 -0,6 4 2 7 4 ENE 0,0
15.12.2018 01:00:00 0,2 -1,8 -0,2 7 4 14 8 ENE 0,0
15.12.2018 00:00:00 0,5 -2,0 0,1 7 4 18 10 E 0,0
14.12.2018 23:00:00 0,7 -2,1 0,3 11 6 18 10 E 0,0
14.12.2018 22:00:00 0,7 -1,9 0,2 11 6 11 6 ENE 0,0
14.12.2018 21:00:00 0,8 -1,7 0,3 7 4 11 6 ENE 0,0
14.12.2018 20:00:00 1,0 -1,6 0,5 7 4 11 6 ENE 0,0
14.12.2018 19:00:00 0,9 -2,3 0,3 7 4 11 6 NE 0,0
14.12.2018 18:00:00 1,2 -2,2 0,5 7 4 14 8 ENE 0,0
14.12.2018 17:00:00 1,3 -1,9 0,5 7 4 14 8 E 0,0
14.12.2018 16:00:00 1,4 -1,6 0,8 7 4 14 8 E 0,0
14.12.2018 15:00:00 1,7 -1,4 1,2 11 6 14 8 ENE 0,0
14.12.2018 14:00:00 1,9 -1,2 1,4 11 6 22 12 ENE 0,0
14.12.2018 13:00:00 2,0 -0,6 2,0 14 8 22 12 ENE 0,0
14.12.2018 12:00:00 1,2 -0,4 1,0 11 6 18 10 ENE 0,0
14.12.2018 11:00:00 0,6 -0,4 0,4 11 6 18 10 NE 0,0
14.12.2018 10:00:00 -1,1 -1,6 -2,3 11 6 14 8 NE 0,0
14.12.2018 09:00:00 -1,2 -1,8 -2,3 7 4 18 10 NE 0,0
14.12.2018 08:00:00 -1,0 -1,6 -3,0 11 6 14 8 NE 0,0
14.12.2018 07:00:00 -1,9 -2,3 -3,9 7 4 11 6 NE 0,0
14.12.2018 06:00:00 -1,3 -1,6 -3,3 7 4 14 8 NE 0,0
14.12.2018 05:00:00 -0,3 -0,9 -1,5 11 6 14 8 NE 0,0
14.12.2018 04:00:00 0,2 -0,6 -0,9 11 6 14 8 NE 0,0
14.12.2018 03:00:00 0,6 -0,4 -0,4 11 6 18 10 NE 0,0
14.12.2018 02:00:00 0,2 -0,6 -0,8 7 4 14 8 NE 0,0
14.12.2018 01:00:00 0,3 -0,6 -0,8 7 4 18 10 NE 0,0
14.12.2018 00:00:00 1,1 0,1 0,5 11 6 14 8 NE 0,0
13.12.2018 23:00:00 0,5 -0,3 -0,3 11 6 14 8 NE 0,0
13.12.2018 22:00:00 1,0 -0,2 0,3 11 6 18 10 NE 0,0
13.12.2018 21:00:00 1,6 -0,1 0,9 14 8 22 12 NE 0,0
13.12.2018 20:00:00 2,0 0,2 1,5 14 8 22 12 NE 0,0
13.12.2018 19:00:00 2,1 0,0 1,6 14 8 22 12 ENE 0,0
13.12.2018 18:00:00 2,0 0,2 1,3 14 8 18 10 ENE 0,0
13.12.2018 17:00:00 2,4 0,3 1,8 11 6 22 12 NE 0,0
13.12.2018 16:00:00 2,7 0,5 2,3 14 8 29 16 ENE 0,0
13.12.2018 15:00:00 3,1 0,0 2,5 22 12 32 18 ENE 0,0

tt = Température de l'air
td = dewpoint
tt 5cm = Température de l'air 5cm
ff = Vitesse du vent
fx = gusts
dd = Direction du vent
rr = Quantités de précipitations

stations d'obs. à proximité